Pagrindinis puslapis
METAR-TAF:

METAR-TAF

Oro uostai :

Mogiliavas, Baltarusija

platuma: 53-57-18N, ilguma: 030-05-42E, Aukštis: 194 m

Dabartinis oras

Ataskaita buvo paskelbta 5 valandos ir 44 minutes, ne 13:00 UTC
Vėjas 12 kt iš Pietų su gūsio iki 17 kt
Temperatūra 3°C
Drėgmė 70%
Slėgis 1022 hPa
Matomumas 10 km arba daugiau
nėra debesų žemiau 1500 m ir nėra kamuolinių lietaus debesų

METAR: UMOO 161300Z 19006G09MPS CAVOK 03/M02 Q1022 NOSIG

Laikas: 21:44 (18:44 UTC)

Prognozė

Ataskaita buvo paskelbta 7 valandos ir 44 minutes, ne 11:00 UTC
Prognozė galioja nuo 16 metu 12 UTC su 16 metu 21 UTC
Vėjas 14 kt iš Pietų/Pietvakarių su gūsio iki 23 kt
Matomumas 10 km arba daugiau
Su prošvaistėmis ne aukštis 1500 ft
Laikinai
nuo 16 metu 12 UTC su 16 metu 18 UTC
Vėjas 17 kt iš Pietų su gūsio iki 27 kt

TAF: UMOO 161100Z 1612/1621 21007G12MPS 9999 BKN015 TEMPO 1612/1618 18009G14MPS

Orai ataskaitas ir orų prognozės (METAR, TAF).

turimą stotys yra geltonos ir raudonos taškus žemėlapyje.

Perkelti pele per norėdami pamatyti stoties vardą.

Tada spustelėkite, norėdami matyti oro stebėjimo ir prognozės.

Norėdami pakeisti žemėlapį: spustelėkite ant žalios mygtukų su juodo kryžiaus žemyn,; žalią mygtuką su brūkšneliu, jei norite nutolinti; arba žalių rodyklių gretimoms žemėlapius.


METAR-TAF: